Time;durP1;ratioP1;P1;durP2;ratioP2;P2;SDS_P1;SDS_P2;PMS_P1;PMS_P2;Temp;Humidity;BMP_temperature;BMP_pressure;BME280_temperature;BME280_humidity;BME280_pressure;Samples;Min_cycle;Max_cycle;Signal;HPM_P1;HPM_P2
2022/07/25 00:01:50;;;;;;;6.93;5.97;;;19.80;99.90;;;18.66;100.00;97357.28;5057093;28;20122;-65
2022/07/25 00:04:20;;;;;;;8.30;7.00;;;19.60;99.90;;;18.65;100.00;97351.16;5075790;28;20105;-65
2022/07/25 00:06:48;;;;;;;7.85;6.15;;;19.50;99.90;;;18.60;100.00;97358.59;5073981;28;20428;-64
2022/07/25 00:09:15;;;;;;;7.25;6.20;;;;;;;18.66;100.00;97358.09;5076139;28;20075;-65
2022/07/25 00:11:42;;;;;;;7.15;6.18;;;19.40;99.90;;;18.74;100.00;97347.81;5066973;28;20548;-65
2022/07/25 00:14:09;;;;;;;9.43;6.75;;;19.40;99.90;;;18.49;100.00;97358.59;5080509;28;20152;-64
2022/07/25 00:16:36;;;;;;;10.82;6.43;;;19.30;99.90;;;18.54;100.00;97356.44;5078543;28;20409;-64
2022/07/25 00:19:04;;;;;;;7.90;6.55;;;19.20;99.90;;;18.64;100.00;97346.88;5062275;28;20509;-65
2022/07/25 00:21:31;;;;;;;6.95;6.00;;;19.20;99.90;;;18.80;100.00;97336.84;5072955;28;20155;-64
2022/07/25 00:23:58;;;;;;;7.22;5.88;;;19.30;99.90;;;18.95;100.00;97331.31;5080005;28;20048;-65
2022/07/25 00:26:25;;;;;;;7.28;6.03;;;19.40;99.90;;;19.02;100.00;97321.94;5079876;28;20056;-65
2022/07/25 00:28:52;;;;;;;6.03;5.43;;;19.40;99.90;;;18.99;100.00;97322.22;5080445;28;20044;-65
2022/07/25 00:31:19;;;;;;;7.18;6.47;;;19.40;99.90;;;18.75;100.00;97325.81;5082276;28;20134;-65
2022/07/25 00:33:46;;;;;;;8.50;6.88;;;19.40;99.90;;;18.58;100.00;97321.06;5075209;28;20059;-65
2022/07/25 00:36:13;;;;;;;7.57;6.35;;;19.30;99.90;;;18.39;100.00;97321.69;5081160;28;20054;-65
2022/07/25 00:38:40;;;;;;;7.68;6.50;;;19.20;99.90;;;18.19;100.00;97337.19;5081459;28;20044;-65
2022/07/25 00:41:07;;;;;;;8.00;6.35;;;19.20;99.90;;;18.21;100.00;97336.25;5083090;28;20106;-65
2022/07/25 00:43:34;;;;;;;7.90;6.43;;;19.00;99.90;;;18.31;100.00;97331.94;5078694;28;20389;-65
2022/07/25 00:46:02;;;;;;;8.20;6.53;;;19.00;99.90;;;18.46;100.00;97332.56;5080524;28;20517;-64
2022/07/25 00:48:29;;;;;;;7.22;5.80;;;18.90;99.90;;;18.54;100.00;97317.00;5078993;28;20064;-64
2022/07/25 00:50:58;;;;;;;6.68;5.82;;;18.90;99.90;;;18.78;100.00;97314.25;5082531;28;20099;-65
2022/07/25 00:53:25;;;;;;;6.40;5.80;;;19.10;99.90;;;18.85;100.00;97317.22;5076231;28;20506;-65
2022/07/25 00:55:52;;;;;;;6.90;6.20;;;19.10;99.90;;;18.76;100.00;97305.63;5085852;28;20098;-65
2022/07/25 00:58:19;;;;;;;6.90;5.68;;;19.20;99.90;;;18.74;100.00;97311.00;5065134;28;20048;-65
2022/07/25 01:00:47;;;;;;;6.68;5.53;;;19.20;99.90;;;18.89;100.00;97305.53;5082779;28;20084;-65
2022/07/25 01:03:15;;;;;;;9.15;6.28;;;19.20;99.90;;;18.64;100.00;97304.00;5064745;28;20441;-65
2022/07/25 01:05:43;;;;;;;6.50;5.75;;;19.20;99.90;;;18.65;100.00;97300.38;5061634;28;20060;-65
2022/07/25 01:08:11;;;;;;;7.72;6.78;;;19.10;99.90;;;18.56;100.00;97300.16;5075329;28;20438;-64
2022/07/25 01:10:38;;;;;;;7.60;6.45;;;19.10;99.90;;;18.50;100.00;97305.91;5079827;28;20530;-64
2022/07/25 01:13:05;;;;;;;7.35;6.18;;;19.10;99.90;;;18.65;100.00;97297.75;5077805;28;20143;-65
2022/07/25 01:15:32;;;;;;;7.10;6.40;;;19.10;99.90;;;18.59;100.00;97304.34;5078730;28;20053;-64
2022/07/25 01:18:00;;;;;;;7.00;6.30;;;19.10;99.90;;;18.56;100.00;97297.53;5084767;28;20044;-64
2022/07/25 01:20:28;;;;;;;7.15;6.45;;;19.10;99.90;;;18.53;100.00;97304.84;5080900;28;20132;-64
2022/07/25 01:22:56;;;;;;;8.10;6.45;;;19.10;99.90;;;18.53;100.00;97302.19;5067675;28;20130;-65
2022/07/25 01:25:25;;;;;;;7.47;6.25;;;19.10;99.90;;;18.47;100.00;97295.63;5080929;28;20151;-65
2022/07/25 01:27:53;;;;;;;7.50;6.05;;;19.10;99.90;;;18.53;100.00;97302.19;5080134;28;20102;-65
2022/07/25 01:30:23;;;;;;;7.78;5.95;;;19.10;99.90;;;18.65;100.00;97295.97;5066307;28;20052;-65
2022/07/25 01:32:51;;;;;;;6.90;5.97;;;19.10;99.90;;;18.72;100.00;97289.25;5076629;28;20141;-65
2022/07/25 01:35:18;;;;;;;7.43;6.20;;;19.10;99.90;;;18.81;100.00;97277.19;5074978;28;20041;-65
2022/07/25 01:37:45;;;;;;;7.97;6.10;;;19.10;99.90;;;18.58;100.00;97276.38;5076350;28;20048;-64
2022/07/25 01:40:13;;;;;;;7.40;6.63;;;19.10;99.90;;;18.39;100.00;97279.66;5082668;28;20084;-64
2022/07/25 01:42:42;;;;;;;7.43;6.22;;;19.00;99.90;;;18.33;100.00;97275.69;5078699;28;20123;-65
2022/07/25 01:45:10;;;;;;;8.23;6.75;;;18.90;99.90;;;18.14;100.00;97284.19;5077429;28;20147;-65
2022/07/25 01:47:38;;;;;;;7.80;6.70;;;18.80;99.90;;;17.92;100.00;97284.19;5079127;28;20439;-65
2022/07/25 01:50:06;;;;;;;8.88;7.80;;;18.80;99.90;;;17.72;100.00;97291.78;5074093;28;20148;-65
2022/07/25 01:52:35;;;;;;;7.50;6.38;;;18.70;99.90;;;17.89;100.00;97287.88;5074110;28;20055;-65
2022/07/25 01:55:02;;;;;;;9.18;7.63;;;18.60;99.90;;;17.69;100.00;97299.88;5074972;28;20593;-65
2022/07/25 01:57:32;;;;;;;8.75;7.05;;;18.50;99.90;;;17.51;100.00;97296.84;5076472;28;20105;-64
2022/07/25 01:59:59;;;;;;;8.85;7.40;;;18.40;99.90;;;17.53;100.00;97299.34;5077500;28;20585;-64
2022/07/25 02:02:26;;;;;;;9.05;7.55;;;18.40;99.90;;;17.49;100.00;97309.28;5081957;28;20086;-65
2022/07/25 02:04:53;;;;;;;8.40;7.47;;;18.30;99.90;;;17.51;100.00;97309.97;5066197;28;20075;-65
2022/07/25 02:07:20;;;;;;;7.85;7.07;;;18.30;99.90;;;17.53;100.00;97308.06;5080654;28;20052;-64
2022/07/25 02:09:47;;;;;;;10.20;7.53;;;18.30;99.90;;;17.57;100.00;97311.31;5083259;28;20048;-65
2022/07/25 02:12:22;;;;;;;8.95;6.72;;;18.30;99.90;;;17.66;100.00;97305.34;5059358;28;20132;-65
2022/07/25 02:14:49;;;;;;;8.73;7.07;;;18.30;99.90;;;17.78;100.00;97286.03;5071301;28;20058;-64
2022/07/25 02:17:16;;;;;;;8.00;7.20;;;18.30;99.90;;;17.78;100.00;97280.78;5061801;28;20044;-64
2022/07/25 02:19:43;;;;;;;8.15;6.90;;;18.30;99.90;;;17.79;100.00;97284.28;5078721;28;20109;-65
2022/07/25 02:22:10;;;;;;;10.90;7.80;;;18.30;99.90;;;17.67;100.00;97282.56;5080333;28;20040;-64
2022/07/25 02:24:39;;;;;;;9.88;7.50;;;18.30;99.90;;;17.45;100.00;97288.63;5077867;28;20127;-65
2022/07/25 02:27:07;;;;;;;12.65;7.38;;;18.30;99.90;;;17.47;100.00;97294.56;5078313;28;20124;-64
2022/07/25 02:29:35;;;;;;;9.15;6.88;;;18.20;99.90;;;17.37;100.00;97290.97;5061610;28;20171;-65
2022/07/25 02:32:02;;;;;;;10.15;7.75;;;18.20;99.90;;;17.28;100.00;97289.88;5076673;28;20146;-64
2022/07/25 02:34:29;;;;;;;8.75;7.45;;;18.10;99.90;;;17.26;100.00;97295.22;5079583;28;20048;-65
2022/07/25 02:36:56;;;;;;;8.35;7.38;;;18.10;99.90;;;17.15;100.00;97295.16;5079012;28;20139;-65
2022/07/25 02:39:24;;;;;;;9.35;7.70;;;18.00;99.90;;;17.11;100.00;97296.38;5077088;28;20130;-65
2022/07/25 02:41:51;;;;;;;9.57;8.40;;;17.90;99.90;;;16.97;100.00;97299.13;5080218;28;20047;-65
2022/07/25 02:44:18;;;;;;;8.30;7.40;;;17.90;99.90;;;17.04;100.00;97300.41;5076949;28;20368;-64
2022/07/25 02:46:45;;;;;;;10.85;8.07;;;;;;;17.08;100.00;97304.44;5077098;28;20216;-65
2022/07/25 02:49:12;;;;;;;10.63;7.55;;;17.80;99.90;;;17.07;100.00;97293.13;5084726;28;20477;-64
2022/07/25 02:51:39;;;;;;;8.38;7.45;;;17.80;99.90;;;16.98;100.00;97301.66;5082576;28;20076;-64
2022/07/25 02:54:06;;;;;;;8.30;7.50;;;17.80;99.90;;;17.11;100.00;97291.94;5075666;28;20544;-64
2022/07/25 02:56:33;;;;;;;10.57;8.23;;;17.80;99.90;;;17.08;100.00;97296.56;5078206;28;20082;-64
2022/07/25 02:59:00;;;;;;;8.70;7.60;;;17.80;99.90;;;17.14;100.00;97301.38;5075193;28;20048;-64
2022/07/25 03:01:28;;;;;;;8.27;7.13;;;17.80;99.90;;;17.14;100.00;97291.72;5056750;28;20123;-64
2022/07/25 03:03:55;;;;;;;7.63;6.75;;;17.80;99.90;;;17.34;100.00;97285.00;5065427;28;20131;-65
2022/07/25 03:06:22;;;;;;;9.13;6.70;;;17.90;99.90;;;17.41;100.00;97274.06;5079687;28;20407;-64
2022/07/25 03:08:49;;;;;;;7.88;6.35;;;17.90;99.90;;;17.49;100.00;97272.53;5081508;28;20430;-64
2022/07/25 03:11:17;;;;;;;9.82;8.40;;;18.00;99.90;;;17.17;100.00;97279.31;5075668;28;20067;-64
2022/07/25 03:13:44;;;;;;;9.70;8.40;;;17.90;99.90;;;17.03;100.00;97283.81;5074408;28;20056;-65
2022/07/25 03:16:11;;;;;;;9.27;7.72;;;17.90;99.90;;;17.04;100.00;97288.13;5071288;28;20135;-64
2022/07/25 03:18:38;;;;;;;8.45;7.60;;;17.80;99.90;;;16.97;100.00;97291.28;5076135;28;20048;-64
2022/07/25 03:21:06;;;;;;;9.35;8.35;;;17.80;99.90;;;16.98;100.00;97291.19;5065178;28;20143;-64
2022/07/25 03:23:33;;;;;;;8.40;7.40;;;17.70;99.90;;;17.09;100.00;97283.34;5077700;28;20143;-65
2022/07/25 03:25:59;;;;;;;8.27;7.47;;;17.80;99.90;;;17.10;100.00;97286.81;5079775;28;20159;-64
2022/07/25 03:28:27;;;;;;;9.00;8.05;;;17.80;99.90;;;16.97;100.00;97281.66;5074534;28;20139;-64
2022/07/25 03:30:54;;;;;;;9.10;8.20;;;17.80;99.90;;;16.95;100.00;97280.09;5078242;28;20126;-65
2022/07/25 03:33:21;;;;;;;8.82;7.70;;;17.70;99.90;;;16.88;100.00;97277.91;5077239;28;20080;-65
2022/07/25 03:35:48;;;;;;;9.10;7.82;;;17.70;99.90;;;16.84;100.00;97288.72;5075927;28;20076;-65
2022/07/25 03:38:15;;;;;;;10.88;9.20;;;17.60;99.90;;;16.80;100.00;97290.72;5074151;28;20154;-65
2022/07/25 03:40:42;;;;;;;10.13;8.57;;;17.60;99.90;;;16.76;100.00;97296.25;5076484;28;20460;-65
2022/07/25 03:43:09;;;;;;;11.05;8.65;;;17.60;99.90;;;16.62;100.00;97298.09;5079228;28;20135;-65
2022/07/25 03:45:36;;;;;;;11.38;8.90;;;17.50;99.90;;;16.46;100.00;97298.34;5075992;28;20049;-64
2022/07/25 03:48:03;;;;;;;9.80;8.73;;;17.40;99.90;;;16.45;100.00;97301.09;5080944;28;20044;-64
2022/07/25 03:50:31;;;;;;;11.18;9.65;;;17.30;99.90;;;16.34;100.00;97296.59;5081249;28;20052;-65
2022/07/25 03:53:01;;;;;;;11.05;8.80;;;;;;;16.44;100.00;97299.41;5083047;28;20865;-66
2022/07/25 03:55:28;;;;;;;9.73;8.70;;;17.20;99.90;;;16.29;100.00;97298.72;5078496;28;20246;-65
2022/07/25 03:57:55;;;;;;;10.23;9.10;;;17.20;99.90;;;16.20;100.00;97305.44;5070977;28;20175;-65
2022/07/25 04:00:22;;;;;;;11.15;8.65;;;17.10;99.90;;;16.22;100.00;97308.78;5082224;28;20052;-65
2022/07/25 04:02:49;;;;;;;10.48;9.45;;;17.10;99.90;;;16.09;100.00;97311.41;5072043;28;20254;-64
2022/07/25 04:05:16;;;;;;;10.25;8.73;;;17.10;99.90;;;16.10;100.00;97313.09;5079481;28;20048;-64
2022/07/25 04:07:43;;;;;;;11.45;9.73;;;17.00;99.90;;;16.03;100.00;97318.84;5085292;28;20169;-64
2022/07/25 04:10:10;;;;;;;12.27;8.88;;;17.00;99.90;;;16.19;100.00;97316.84;5081099;28;20552;-65
2022/07/25 04:12:37;;;;;;;10.40;9.38;;;17.00;99.90;;;16.15;100.00;97318.00;5080421;28;20627;-65
2022/07/25 04:15:06;;;;;;;10.20;9.10;;;;;;;16.26;100.00;97307.63;5076342;28;20062;-64
2022/07/25 04:17:37;;;;;;;10.13;9.13;;;;;;;16.35;100.00;97302.66;5076688;28;20131;-65
2022/07/25 04:20:06;;;;;;;10.80;9.70;;;17.10;99.90;;;16.29;100.00;97309.19;5081276;28;20190;-65
2022/07/25 04:22:34;;;;;;;10.43;8.80;;;17.10;99.90;;;16.37;100.00;97303.41;5058906;28;20052;-65
2022/07/25 04:25:01;;;;;;;11.10;9.27;;;17.20;99.90;;;16.36;100.00;97304.38;5076376;28;20048;-65
2022/07/25 04:27:28;;;;;;;10.60;8.70;;;17.20;99.90;;;16.60;100.00;97299.97;5084379;28;20121;-64
2022/07/25 04:29:55;;;;;;;9.35;8.13;;;17.20;99.90;;;16.59;100.00;97293.09;5062321;28;20128;-66
2022/07/25 04:32:22;;;;;;;11.07;8.70;;;17.30;99.90;;;16.65;100.00;97290.03;5082267;28;20465;-64
2022/07/25 04:34:51;;;;;;;9.15;8.25;;;17.30;99.90;;;16.82;100.00;97280.97;5081123;28;20539;-65
2022/07/25 04:37:18;;;;;;;9.52;8.52;;;17.40;99.90;;;16.77;100.00;97279.59;5077274;28;20104;-64
2022/07/25 04:39:45;;;;;;;9.60;8.43;;;17.60;99.90;;;16.79;100.00;97277.72;5083659;28;20056;-65
2022/07/25 04:42:12;;;;;;;9.10;8.18;;;17.60;99.90;;;16.88;100.00;97272.66;5083320;28;20131;-64
2022/07/25 04:44:39;;;;;;;10.05;8.98;;;17.60;99.90;;;16.79;100.00;97280.34;5075918;28;20516;-65
2022/07/25 04:47:05;;;;;;;10.13;9.02;;;17.60;99.90;;;16.76;100.00;97285.78;5078195;28;20585;-65
2022/07/25 04:49:32;;;;;;;10.65;8.95;;;17.70;99.90;;;16.76;100.00;97277.91;5079536;28;20052;-64
2022/07/25 04:51:59;;;;;;;10.43;9.40;;;17.70;99.90;;;16.76;100.00;97281.38;5077245;28;20496;-65
2022/07/25 04:54:27;;;;;;;10.85;9.40;;;17.80;99.90;;;16.85;100.00;97275.50;5080723;28;20074;-65
2022/07/25 04:56:54;;;;;;;10.45;9.02;;;17.80;99.90;;;16.93;100.00;97270.53;5080169;28;20128;-64
2022/07/25 04:59:21;;;;;;;9.95;8.95;;;17.80;99.90;;;16.96;100.00;97266.03;5073665;28;20055;-64
2022/07/25 05:01:48;;;;;;;12.77;8.95;;;17.80;99.90;;;16.92;100.00;97260.16;5079796;28;20044;-64
2022/07/25 05:04:15;;;;;;;10.75;9.45;;;17.80;99.90;;;16.92;100.00;97257.53;5079377;28;20051;-65
2022/07/25 05:06:42;;;;;;;11.48;9.15;;;17.90;99.90;;;17.21;100.00;97260.63;5061151;28;20134;-65
2022/07/25 05:09:09;;;;;;;10.35;9.32;;;18.00;99.90;;;17.20;100.00;97260.75;5079230;28;20131;-64
2022/07/25 05:11:36;;;;;;;10.25;9.20;;;18.00;99.90;;;17.22;100.00;97258.84;5081880;28;20167;-65
2022/07/25 05:14:03;;;;;;;10.68;9.30;;;18.10;99.90;;;17.27;100.00;97256.72;5080987;28;20047;-64
2022/07/25 05:16:31;;;;;;;9.45;8.40;;;18.20;99.90;;;17.46;100.00;97246.50;5084810;28;20056;-64
2022/07/25 05:18:58;;;;;;;10.00;8.98;;;18.20;99.90;;;17.55;100.00;97244.97;5075773;28;20078;-64
2022/07/25 05:21:25;;;;;;;10.32;9.32;;;18.40;99.90;;;17.74;100.00;97245.25;5073330;28;20044;-64
2022/07/25 05:23:52;;;;;;;10.85;7.95;;;18.50;99.90;;;17.98;100.00;97234.66;5083895;28;20434;-64
2022/07/25 05:26:19;;;;;;;9.90;7.93;;;18.60;99.90;;;18.16;100.00;97219.25;5076077;28;20481;-65
2022/07/25 05:28:46;;;;;;;9.73;8.25;;;18.80;99.90;;;18.07;100.00;97221.78;5079666;28;20088;-64
2022/07/25 05:31:13;;;;;;;10.27;9.18;;;18.90;99.90;;;18.09;100.00;97222.50;5083176;28;20059;-64
2022/07/25 05:33:41;;;;;;;11.48;9.35;;;19.00;99.90;;;18.10;100.00;97224.97;5083022;28;20062;-65
2022/07/25 05:36:08;;;;;;;11.90;8.25;;;19.10;99.90;;;18.37;100.00;97214.06;5075272;28;20187;-65
2022/07/25 05:38:35;;;;;;;10.30;8.60;;;19.20;99.90;;;18.61;100.00;97213.06;5073784;28;20071;-64
2022/07/25 05:41:03;;;;;;;11.23;8.57;;;19.30;99.90;;;18.64;100.00;97212.81;5075961;28;20127;-64
2022/07/25 05:43:30;;;;;;;11.90;8.80;;;19.40;99.90;;;18.81;100.00;97214.09;5078400;28;20342;-64
2022/07/25 05:46:04;;;;;;;9.70;7.75;;;19.50;99.90;;;19.18;100.00;97208.41;5078788;28;20242;-64
2022/07/25 05:48:31;;;;;;;10.45;8.30;;;19.80;99.90;;;19.30;100.00;97198.69;5078047;28;20537;-64
2022/07/25 05:50:58;;;;;;;10.25;7.55;;;20.10;99.90;;;19.46;100.00;97193.78;5081141;28;20052;-64
2022/07/25 05:53:25;;;;;;;9.23;8.25;;;20.20;99.90;;;19.56;100.00;97184.13;5077219;28;20105;-64
2022/07/25 05:55:52;;;;;;;9.18;7.75;;;20.30;99.90;;;19.56;100.00;97186.75;5074565;28;20456;-64
2022/07/25 05:58:19;;;;;;;12.68;7.68;;;20.50;99.90;;;19.82;100.00;97178.47;5064886;28;20083;-64
2022/07/25 06:00:52;;;;;;;9.85;7.47;;;20.60;99.90;;;19.97;100.00;97185.00;5080560;28;20056;-65
2022/07/25 06:03:19;;;;;;;9.68;7.45;;;20.80;99.90;;;20.16;100.00;97183.41;5079114;28;20793;-65
2022/07/25 06:05:46;;;;;;;10.80;7.57;;;20.90;99.90;;;20.36;100.00;97179.84;5065737;28;20082;-64
2022/07/25 06:08:14;;;;;;;7.72;6.90;;;21.10;99.90;;;20.72;100.00;97168.81;5072248;28;20051;-65
2022/07/25 06:10:42;;;;;;;9.60;7.60;;;21.30;99.90;;;20.96;100.00;97157.81;5076128;28;20466;-65
2022/07/25 06:13:09;;;;;;;8.52;6.95;;;21.50;99.90;;;21.26;100.00;97146.25;5058888;28;20077;-65
2022/07/25 06:15:36;;;;;;;8.77;7.57;;;21.80;99.90;;;21.37;100.00;97140.81;5082089;28;20125;-65
2022/07/25 06:18:03;;;;;;;8.13;7.00;;;22.10;99.90;;;21.63;100.00;97135.75;5074295;28;20063;-65
2022/07/25 06:20:30;;;;;;;6.85;6.05;;;22.30;99.90;;;22.10;100.00;97126.88;5082042;28;20076;-65
2022/07/25 06:22:57;;;;;;;7.28;5.53;;;22.70;99.90;;;22.53;100.00;97117.41;5081035;28;20044;-65
2022/07/25 06:25:24;;;;;;;8.35;5.63;;;23.00;99.90;;;22.90;100.00;97106.66;5077877;28;20086;-65
2022/07/25 06:27:51;;;;;;;9.45;5.78;;;23.30;99.90;;;23.20;100.00;97096.63;5075986;28;20052;-64
2022/07/25 06:30:18;;;;;;;8.00;5.63;;;23.70;99.90;;;23.48;100.00;97094.63;5076174;28;20156;-64
2022/07/25 06:32:48;;;;;;;6.32;5.60;;;24.00;99.90;;;23.72;100.00;97096.56;5076703;28;20048;-65
2022/07/25 06:35:16;;;;;;;7.65;5.28;;;24.30;99.90;;;23.89;100.00;97084.22;5076915;28;20102;-65
2022/07/25 06:37:44;;;;;;;9.63;5.10;;;24.50;99.90;;;24.10;100.00;97077.66;5065556;28;20063;-65
2022/07/25 06:40:11;;;;;;;6.25;4.80;;;24.70;99.90;;;24.34;100.00;97079.53;5077543;28;20155;-65
2022/07/25 06:42:41;;;;;;;7.82;4.60;;;24.90;99.90;;;24.44;100.00;97082.84;5066011;28;20049;-65
2022/07/25 06:45:13;;;;;;;5.25;4.63;;;25.10;99.90;;;24.48;100.00;97078.91;5074829;28;20096;-65
2022/07/25 06:47:42;;;;;;;8.20;4.82;;;25.30;99.90;;;24.75;100.00;97076.94;5082628;28;20052;-65
2022/07/25 06:50:13;;;;;;;6.20;4.90;;;25.40;99.90;;;24.82;100.00;97080.56;5076359;28;20163;-66
2022/07/25 06:52:41;;;;;;;6.18;5.47;;;25.50;99.90;;;24.97;100.00;97086.84;5077450;28;20114;-65
2022/07/25 06:55:10;;;;;;;5.57;4.47;;;25.70;99.90;;;25.01;100.00;97085.50;5072832;28;20146;-66
2022/07/25 06:57:37;;;;;;;7.53;5.20;;;25.80;99.90;;;25.18;100.00;97077.50;5080378;28;20538;-66
2022/07/25 07:00:09;;;;;;;7.95;4.90;;;26.00;99.90;;;25.23;100.00;97073.38;5055636;28;20881;-65
2022/07/25 07:03:00;;;;;;;6.90;4.68;;;26.10;99.90;;;25.33;100.00;97069.72;5061301;28;20052;-66
2022/07/25 07:05:31;;;;;;;7.18;5.40;;;26.20;99.90;;;25.45;100.00;97071.84;5072197;28;20068;-66
2022/07/25 07:07:59;;;;;;;6.78;4.65;;;26.20;99.90;;;25.62;100.00;97074.44;5069152;28;20573;-66
2022/07/25 07:10:27;;;;;;;7.18;4.90;;;26.30;99.90;;;25.60;100.00;97069.28;5078467;28;20397;-65
2022/07/25 07:13:12;;;;;;;7.07;4.50;;;26.40;99.90;;;25.57;100.00;97074.13;5076491;28;20159;-66
2022/07/25 07:15:48;;;;;;;6.18;4.78;;;26.50;99.90;;;25.56;100.00;97080.44;5073406;28;20075;-66
2022/07/25 07:18:16;;;;;;;6.60;5.05;;;26.50;99.90;;;25.52;100.00;97079.97;5058281;28;20056;-66
2022/07/25 07:20:43;;;;;;;6.05;5.10;;;26.60;99.90;;;25.73;100.00;97079.38;5076293;28;20049;-65
2022/07/25 07:23:11;;;;;;;5.82;4.15;;;26.60;99.90;;;25.81;100.00;97075.84;5079001;28;20087;-65
2022/07/25 07:25:42;;;;;;;6.00;4.28;;;26.70;99.90;;;25.75;100.00;97072.06;5082332;28;20056;-64
2022/07/25 07:28:09;;;;;;;4.95;4.38;;;26.80;99.90;;;25.98;100.00;97072.13;5078747;28;20433;-65
2022/07/25 07:30:36;;;;;;;6.75;4.60;;;26.80;99.90;;;26.08;100.00;97070.06;5081239;28;20136;-65
2022/07/25 07:33:23;;;;;;;8.25;5.03;;;26.90;99.90;;;26.13;100.00;97063.41;5071597;28;20048;-65
2022/07/25 07:35:50;;;;;;;7.75;4.80;;;26.90;99.90;;;26.13;100.00;97069.53;5078645;28;20077;-65
2022/07/25 07:38:18;;;;;;;6.50;4.43;;;26.90;99.90;;;26.22;100.00;97073.78;5062657;28;20505;-65
2022/07/25 07:40:44;;;;;;;5.25;4.38;;;27.00;99.90;;;26.49;100.00;97071.63;5079569;28;20056;-65
2022/07/25 07:43:11;;;;;;;5.95;4.55;;;27.00;99.90;;;26.49;100.00;97083.09;5074201;28;20148;-64
2022/07/25 07:45:38;;;;;;;5.03;4.35;;;27.20;99.90;;;26.36;100.00;97077.53;5077645;28;20128;-65
2022/07/25 07:48:06;;;;;;;6.70;4.43;;;27.30;99.90;;;26.68;100.00;97078.31;5075068;28;20048;-65
2022/07/25 07:50:34;;;;;;;6.88;4.97;;;27.40;99.90;;;26.69;100.00;97072.81;5077384;28;20107;-65
2022/07/25 07:53:01;;;;;;;6.28;4.47;;;27.60;99.90;;;26.50;100.00;97075.94;5060459;28;20128;-66
2022/07/25 07:55:45;;;;;;;6.72;5.13;;;27.60;99.90;;;26.62;100.00;97074.56;5080073;28;20128;-65
2022/07/25 07:58:15;;;;;;;7.38;4.88;;;27.60;99.90;;;26.82;100.00;97066.91;5054999;28;20136;-65
2022/07/25 08:00:47;;;;;;;5.65;5.03;;;27.60;99.90;;;26.98;100.00;97070.41;5079097;28;20109;-65
2022/07/25 08:03:19;;;;;;;5.93;4.65;;;27.70;99.90;;;26.96;100.00;97056.44;5075353;28;20044;-65
2022/07/25 08:05:47;;;;;;;8.75;5.00;;;27.80;99.90;;;26.86;100.00;97062.03;5078330;28;20076;-65
2022/07/25 08:08:15;;;;;;;6.90;5.35;;;27.80;99.90;;;26.68;100.00;97052.50;5082629;28;20135;-65
2022/07/25 08:10:46;;;;;;;6.70;5.25;;;27.80;99.90;;;26.75;100.00;97065.94;5083476;28;20120;-65
2022/07/25 08:13:22;;;;;;;6.97;5.65;;;27.70;99.90;;;27.06;100.00;97055.16;5076145;28;20142;-65
2022/07/25 08:15:54;;;;;;;9.68;5.43;;;27.80;99.90;;;27.18;100.00;97046.72;5083088;28;20060;-65
2022/07/25 08:18:22;;;;;;;6.90;4.97;;;27.80;99.90;;;27.04;100.00;97057.19;5076497;28;20054;-65
2022/07/25 08:20:50;;;;;;;8.45;5.25;;;27.90;99.90;;;27.13;100.00;97050.75;5078663;28;20087;-65
2022/07/25 08:23:18;;;;;;;8.77;5.55;;;28.00;99.90;;;27.37;100.00;97056.03;5081152;28;20170;-66
2022/07/25 08:25:47;;;;;;;7.03;5.25;;;28.10;99.90;;;27.39;100.00;97057.50;5067207;28;20040;-65
2022/07/25 08:28:14;;;;;;;6.60;4.75;;;28.20;99.80;;;27.55;100.00;97056.47;5075597;28;20193;-65
2022/07/25 08:30:41;;;;;;;8.20;5.00;;;28.40;99.60;;;27.59;100.00;97052.44;5075790;28;20167;-66
2022/07/25 08:33:17;;;;;;;7.28;5.03;;;28.60;99.50;;;27.91;100.00;97039.72;5064487;28;20530;-65
2022/07/25 08:35:53;;;;;;;6.97;4.68;;;28.80;99.20;;;28.07;100.00;97060.00;5072110;28;20055;-65
2022/07/25 08:38:23;;;;;;;6.13;4.35;;;28.90;98.60;;;28.30;100.00;97046.50;5075906;28;20067;-65
2022/07/25 08:40:52;;;;;;;6.75;4.60;;;29.00;98.70;;;28.37;100.00;97050.03;5074361;28;20156;-66
2022/07/25 08:43:19;;;;;;;6.00;4.40;;;29.20;97.40;;;28.55;100.00;97042.44;5081119;28;20142;-66
2022/07/25 08:45:49;;;;;;;7.63;4.63;;;29.40;97.30;;;28.76;100.00;97041.59;5074784;28;20047;-66
2022/07/25 08:48:20;;;;;;;5.53;4.13;;;29.60;97.00;;;29.03;100.00;97036.44;5080650;28;20151;-65
2022/07/25 08:50:48;;;;;;;6.22;4.70;;;29.90;96.30;;;28.92;100.00;97036.97;5064601;28;20135;-66
2022/07/25 08:53:18;;;;;;;8.60;4.60;;;30.20;96.00;;;29.17;100.00;97030.22;5077432;28;20073;-66
2022/07/25 08:56:06;;;;;;;8.13;4.43;;;30.40;95.70;;;30.28;100.00;97026.56;5082863;28;20047;-66
2022/07/25 08:58:41;;;;;;;5.35;3.90;;;30.80;96.70;;;30.46;100.00;97025.97;5062538;28;20211;-66
2022/07/25 09:01:11;;;;;;;5.65;4.07;;;;;;;30.72;100.00;97035.84;5072404;28;20127;-66
2022/07/25 09:03:39;;;;;;;5.72;4.03;;;31.70;94.60;;;30.92;100.00;97030.50;5073397;28;20101;-66
2022/07/25 09:06:21;;;;;;;5.65;4.30;;;32.10;93.90;;;30.43;100.00;97035.22;5069647;28;20045;-66
2022/07/25 09:08:58;;;;;;;6.35;4.30;;;32.10;92.90;;;30.23;100.00;97031.66;5063512;28;20040;-65
2022/07/25 09:11:35;;;;;;;5.35;3.53;;;31.80;93.20;;;29.84;100.00;97053.81;5075154;28;20050;-65
2022/07/25 09:14:11;;;;;;;7.80;3.80;;;31.60;92.00;;;30.33;100.00;97034.78;5074136;28;20123;-65
2022/07/25 09:16:43;;;;;;;5.85;4.18;;;31.50;92.60;;;30.31;100.00;97042.22;5063957;28;20045;-64
2022/07/25 09:19:16;;;;;;;7.80;4.25;;;31.30;92.80;;;29.77;100.00;97035.88;5050935;28;20060;-65
2022/07/25 09:21:56;;;;;;;5.45;3.97;;;31.40;92.60;;;29.83;100.00;97028.88;5065617;28;20053;-65
2022/07/25 09:24:24;;;;;;;9.18;3.72;;;31.20;92.30;;;30.05;100.00;97034.09;5072513;28;20147;-65
2022/07/25 09:26:54;;;;;;;6.68;3.78;;;31.00;92.50;;;30.05;100.00;97034.91;5070063;28;20052;-65
2022/07/25 09:29:30;;;;;;;6.28;3.53;;;31.10;92.60;;;30.69;100.00;97035.44;5073980;28;20143;-66
2022/07/25 09:32:00;;;;;;;7.45;4.03;;;31.40;92.10;;;30.76;100.00;97029.03;5067794;28;20045;-66
2022/07/25 09:34:39;;;;;;;4.07;3.13;;;31.60;91.60;;;31.51;100.00;97020.72;5076924;28;20472;-66
2022/07/25 09:37:13;;;;;;;6.10;3.80;;;31.80;91.60;;;31.57;100.00;97019.88;5071325;28;20155;-65
2022/07/25 09:39:46;;;;;;;5.45;4.03;;;32.10;91.50;;;30.93;100.00;97026.81;5075094;28;20420;-65
2022/07/25 09:42:31;;;;;;;6.25;3.70;;;32.10;91.00;;;30.97;100.00;97033.38;5079165;28;20044;-65
2022/07/25 09:45:11;;;;;;;6.18;3.42;;;32.10;90.70;;;31.02;100.00;97019.38;5077157;28;20044;-65
2022/07/25 09:47:58;;;;;;;5.03;3.33;;;32.20;90.60;;;31.19;100.00;97020.56;5061704;28;20105;-66
2022/07/25 09:50:30;;;;;;;5.43;3.42;;;32.10;90.50;;;31.20;100.00;97027.59;5056883;28;20080;-66
2022/07/25 09:53:01;;;;;;;6.22;3.58;;;32.00;90.40;;;31.39;100.00;97025.06;5075036;28;20170;-65
2022/07/25 09:55:29;;;;;;;4.65;3.20;;;32.10;90.20;;;31.85;100.00;97035.63;5076096;28;20080;-64
2022/07/25 09:57:56;;;;;;;4.82;3.08;;;32.40;90.10;;;32.81;100.00;97028.44;5062539;28;20122;-65
2022/07/25 10:00:26;;;;;;;7.60;3.83;;;32.80;89.00;;;32.98;100.00;97033.25;5077707;28;20516;-65
2022/07/25 10:02:53;;;;;;;5.82;3.40;;;33.30;88.10;;;32.79;100.00;97025.16;5076514;28;20704;-65
2022/07/25 10:05:39;;;;;;;4.25;3.00;;;33.70;89.20;;;32.74;100.00;97026.88;5074177;28;20203;-65
2022/07/25 10:08:07;;;;;;;5.10;3.35;;;33.60;88.10;;;32.55;100.00;97024.13;5058735;28;20388;-65
2022/07/25 10:10:40;;;;;;;4.25;3.13;;;33.50;87.30;;;32.63;100.00;97026.53;5075924;28;20080;-65
2022/07/25 10:13:15;;;;;;;4.15;3.22;;;33.50;87.10;;;32.45;100.00;97038.00;5075243;28;20362;-66
2022/07/25 10:15:51;;;;;;;4.63;3.30;;;33.30;87.00;;;31.96;100.00;97026.13;5071553;28;20179;-66
2022/07/25 10:18:26;;;;;;;5.57;2.92;;;33.00;87.50;;;32.14;100.00;97020.03;5071272;28;20083;-66
2022/07/25 10:21:09;;;;;;;8.38;2.75;;;32.80;86.80;;;31.38;100.00;97029.59;5062957;28;20126;-66